Meteo Giornale » Osservazioni meteo Svizzera » Saint Gallen-Altenrhein

ore: 22:50 - Osservazioni Meteo Saint Gallen-Altenrhein
Lat. 47° 29' N Lon. 9° 33' E Alt. 398 metri s.l.m.

coperto Europe/Zurich

13 °C

Coperto

Temp. 24 Ore

11 °C

19 °C

Ovest/Nord-Ovest

13 Km/h

Dew point 11 °C

Umidità 87 %

Visibilità  10 Km

Il sole sorge alle ore 05:37

Il sole tramonta alle ore 20:58

Data e Ora Cielo e Fenomeni T °C DP °C Um. % Pres. hPa Vis. km Vento km/h
Oggi h: 22:50 coperto Coperto 13 11 87 1004 10 O/NO 13
Oggi h: 22:20 coperto_pioggia Pioviggine Leggera 13 12 93 1004 10 N 5.5
Oggi h: 21:50 coperto_pioggia Pioggia Debole 13 13 100 1004 10 N 5.5
Oggi h: 21:20 molto_nuvoloso Molto Nuvoloso 14 12 87 1004 10 N 1.8
Oggi h: 20:50 molto_nuvoloso Molto Nuvoloso 13 12 93 1004 10 N 5.5
Oggi h: 20:20 molto_nuvoloso Molto Nuvoloso 14 11 82 1003 10 N 7.4
Oggi h: 19:50 molto_nuvoloso Rovescio nelle Vicinanze 15 10 72 1003 10 N 5.5
Oggi h: 19:20 molto_nuvoloso Rovescio nelle Vicinanze 15 10 72 1003 10 NE 11.1
Oggi h: 18:50 molto_nuvoloso Molto Nuvoloso 17 8 55 1003 10 NO 9.3
Oggi h: 18:20 nuvoloso Nuvoloso 19 11 59 1003 10 N 5.5
Oggi h: 17:50 nuvoloso Nuvoloso 18 11 63 1003 10 O/NO 7.4
Oggi h: 17:20 nuvoloso Nuvoloso 18 11 63 1003 10 O 11.1
Oggi h: 16:50 nuvoloso Nuvoloso 19 12 63 1003 10 O/NO 11.1
Oggi h: 16:20 nuvoloso Nuvoloso 19 11 59 1003 10 O/NO 9.3
Oggi h: 15:50 nuvoloso Nuvoloso 18 9 55 1003 10 O 11.1
Oggi h: 15:20 molto_nuvoloso Molto Nuvoloso 18 9 55 1004 10 O 11.1
Oggi h: 14:50 molto_nuvoloso Molto Nuvoloso 17 10 63 1004 10 O 9.3
Oggi h: 14:20 molto_nuvoloso Molto Nuvoloso 18 13 72 1004 10 NO 11.1
Oggi h: 13:50 molto_nuvoloso Molto Nuvoloso 18 13 72 1004 10 NO 11.1
Oggi h: 13:20 molto_nuvoloso Molto Nuvoloso 15 11 76 1004 10 N 13
Oggi h: 12:20 nuvoloso Nuvoloso 16 13 82 1005 10 N/NO 11.1
Oggi h: 11:50 nuvoloso Nuvoloso 16 13 82 1005 10 N/NO 11.1
Oggi h: 11:20 molto_nuvoloso Molto Nuvoloso 15 12 82 1005 10 NO 9.3
Oggi h: 10:50 molto_nuvoloso Molto Nuvoloso 15 12 82 1005 10 NO 9.3
Oggi h: 10:20 molto_nuvoloso Molto Nuvoloso 13 12 93 1005 10 NO 7.4
Oggi h: 09:50 molto_nuvoloso Molto Nuvoloso 13 12 93 1005 10 NO 7.4
Oggi h: 09:20 sereno Sereno 13 11 87 1005 10 NO 9.3
Oggi h: 08:50 poco_nuvoloso Poco Nuvoloso 13 11 87 1005 10 N 5.5
Oggi h: 08:20 molto_nuvoloso Molto Nuvoloso 13 12 93 1005 10 N 1.8
Oggi h: 07:50 coperto Coperto 12 11 93 1005 10 N 3.7
Oggi h: 07:20 coperto Coperto 12 11 93 1005 10 N 1.8
Oggi h: 06:50 coperto Coperto 12 11 93 1005 10 N 5.5
Oggi h: 06:20 coperto Coperto 11 11 100 1005 10 N 3.7
Oggi h: 05:50 coperto Coperto 11 10 93 1005 10 N 5.5
Oggi h: 05:20 sereno Sereno 11 10 93 1005 10 N 3.7
Oggi h: 04:50 coperto Coperto 12 11 93 1005 10 N 1.8
Oggi h: 04:20 coperto Coperto 12 11 93 1005 10 N 1.8
Oggi h: 03:50 molto_nuvoloso Molto Nuvoloso 12 11 93 1005 10 N 3.7
Oggi h: 03:20 coperto Coperto 12 11 93 1005 10 N 5.5
Oggi h: 02:50 coperto Coperto 12 11 93 1005 10 N 3.7
Oggi h: 02:20 coperto Coperto 12 11 93 1005 10 O 7.4
Oggi h: 01:50 coperto Coperto 13 11 87 1005 10 O/NO 9.3
Oggi h: 01:20 coperto Coperto 13 11 87 1005 10 NO 11.1
Oggi h: 00:50 coperto Coperto 13 11 87 1005 10 NO 14.8
Oggi h: 00:20 coperto Coperto 14 11 82 1005 10 O/NO 16.7
Ieri h: 23:50 coperto Coperto 14 11 82 1005 10 O/NO 18.5